sensor_id;sensor_type;location;lat;lon;timestamp;P1;durP1;ratioP1;P2;durP2;ratioP2
7247;SDS011;3665;51.034;13.642;2022-09-21T00:02:21;3.47;;;2.57;;
7247;SDS011;3665;51.034;13.642;2022-09-21T00:07:09;3.07;;;2.80;;
7247;SDS011;3665;51.034;13.642;2022-09-21T00:11:58;4.13;;;3.10;;
7247;SDS011;3665;51.034;13.642;2022-09-21T00:16:45;3.53;;;3.03;;
7247;SDS011;3665;51.034;13.642;2022-09-21T00:21:35;5.03;;;3.10;;
7247;SDS011;3665;51.034;13.642;2022-09-21T00:26:21;3.57;;;3.00;;
7247;SDS011;3665;51.034;13.642;2022-09-21T00:31:12;3.90;;;2.60;;
7247;SDS011;3665;51.034;13.642;2022-09-21T00:36:02;4.07;;;2.80;;
7247;SDS011;3665;51.034;13.642;2022-09-21T00:40:46;2.70;;;2.50;;
7247;SDS011;3665;51.034;13.642;2022-09-21T00:45:53;3.37;;;2.90;;
7247;SDS011;3665;51.034;13.642;2022-09-21T00:50:55;3.70;;;2.97;;
7247;SDS011;3665;51.034;13.642;2022-09-21T00:55:43;3.97;;;2.43;;
7247;SDS011;3665;51.034;13.642;2022-09-21T01:00:30;4.07;;;2.83;;
7247;SDS011;3665;51.034;13.642;2022-09-21T01:05:18;4.00;;;3.00;;
7247;SDS011;3665;51.034;13.642;2022-09-21T01:10:07;3.77;;;3.13;;
7247;SDS011;3665;51.034;13.642;2022-09-21T01:14:56;3.43;;;3.07;;
7247;SDS011;3665;51.034;13.642;2022-09-21T01:20:04;4.73;;;2.70;;
7247;SDS011;3665;51.034;13.642;2022-09-21T01:25:21;5.30;;;2.63;;
7247;SDS011;3665;51.034;13.642;2022-09-21T01:30:21;5.37;;;3.20;;
7247;SDS011;3665;51.034;13.642;2022-09-21T01:35:12;3.37;;;2.90;;
7247;SDS011;3665;51.034;13.642;2022-09-21T01:40:18;4.77;;;2.70;;
7247;SDS011;3665;51.034;13.642;2022-09-21T01:45:20;4.00;;;3.00;;
7247;SDS011;3665;51.034;13.642;2022-09-21T01:50:22;4.93;;;3.03;;
7247;SDS011;3665;51.034;13.642;2022-09-21T01:55:09;3.80;;;3.07;;
7247;SDS011;3665;51.034;13.642;2022-09-21T01:59:57;5.13;;;3.50;;
7247;SDS011;3665;51.034;13.642;2022-09-21T02:05:04;6.37;;;3.60;;
7247;SDS011;3665;51.034;13.642;2022-09-21T02:09:50;5.43;;;3.90;;
7247;SDS011;3665;51.034;13.642;2022-09-21T02:14:38;5.67;;;4.30;;
7247;SDS011;3665;51.034;13.642;2022-09-21T02:19:27;4.93;;;4.07;;
7247;SDS011;3665;51.034;13.642;2022-09-21T02:24:32;5.37;;;4.00;;
7247;SDS011;3665;51.034;13.642;2022-09-21T02:29:35;6.50;;;4.60;;
7247;SDS011;3665;51.034;13.642;2022-09-21T02:34:47;7.07;;;4.50;;
7247;SDS011;3665;51.034;13.642;2022-09-21T02:39:58;5.83;;;4.57;;
7247;SDS011;3665;51.034;13.642;2022-09-21T02:44:46;6.43;;;4.70;;
7247;SDS011;3665;51.034;13.642;2022-09-21T02:49:51;5.43;;;4.60;;
7247;SDS011;3665;51.034;13.642;2022-09-21T02:54:56;5.77;;;4.87;;
7247;SDS011;3665;51.034;13.642;2022-09-21T02:59:43;7.93;;;5.80;;
7247;SDS011;3665;51.034;13.642;2022-09-21T03:04:49;8.10;;;5.20;;
7247;SDS011;3665;51.034;13.642;2022-09-21T03:09:33;7.03;;;5.50;;
7247;SDS011;3665;51.034;13.642;2022-09-21T03:14:21;6.23;;;5.20;;
7247;SDS011;3665;51.034;13.642;2022-09-21T03:19:19;8.23;;;5.60;;
7247;SDS011;3665;51.034;13.642;2022-09-21T03:24:07;6.83;;;4.97;;
7247;SDS011;3665;51.034;13.642;2022-09-21T03:29:21;8.07;;;6.10;;
7247;SDS011;3665;51.034;13.642;2022-09-21T03:34:05;7.70;;;5.90;;
7247;SDS011;3665;51.034;13.642;2022-09-21T03:38:54;8.10;;;5.90;;
7247;SDS011;3665;51.034;13.642;2022-09-21T03:43:41;7.20;;;5.50;;
7247;SDS011;3665;51.034;13.642;2022-09-21T03:48:29;8.27;;;6.07;;
7247;SDS011;3665;51.034;13.642;2022-09-21T03:53:18;10.10;;;6.90;;
7247;SDS011;3665;51.034;13.642;2022-09-21T03:58:08;7.63;;;5.80;;
7247;SDS011;3665;51.034;13.642;2022-09-21T04:02:52;7.17;;;5.90;;
7247;SDS011;3665;51.034;13.642;2022-09-21T04:07:42;8.97;;;5.90;;
7247;SDS011;3665;51.034;13.642;2022-09-21T04:12:33;7.63;;;6.30;;
7247;SDS011;3665;51.034;13.642;2022-09-21T04:17:17;6.77;;;6.07;;
7247;SDS011;3665;51.034;13.642;2022-09-21T04:22:07;9.53;;;6.53;;
7247;SDS011;3665;51.034;13.642;2022-09-21T04:26:54;8.83;;;6.70;;
7247;SDS011;3665;51.034;13.642;2022-09-21T04:31:43;7.93;;;6.90;;
7247;SDS011;3665;51.034;13.642;2022-09-21T04:36:30;8.63;;;7.10;;
7247;SDS011;3665;51.034;13.642;2022-09-21T04:41:17;9.17;;;6.73;;
7247;SDS011;3665;51.034;13.642;2022-09-21T04:46:06;8.57;;;7.63;;
7247;SDS011;3665;51.034;13.642;2022-09-21T04:50:54;12.27;;;7.17;;
7247;SDS011;3665;51.034;13.642;2022-09-21T04:55:43;8.93;;;7.13;;
7247;SDS011;3665;51.034;13.642;2022-09-21T05:00:30;9.70;;;7.13;;
7247;SDS011;3665;51.034;13.642;2022-09-21T05:05:19;9.17;;;8.20;;
7247;SDS011;3665;51.034;13.642;2022-09-21T05:10:07;11.00;;;7.97;;
7247;SDS011;3665;51.034;13.642;2022-09-21T05:14:54;10.67;;;8.03;;
7247;SDS011;3665;51.034;13.642;2022-09-21T05:19:44;13.23;;;8.87;;
7247;SDS011;3665;51.034;13.642;2022-09-21T05:24:29;10.50;;;7.80;;
7247;SDS011;3665;51.034;13.642;2022-09-21T05:29:18;10.37;;;7.53;;
7247;SDS011;3665;51.034;13.642;2022-09-21T05:34:12;12.73;;;8.53;;
7247;SDS011;3665;51.034;13.642;2022-09-21T05:39:27;9.60;;;8.60;;
7247;SDS011;3665;51.034;13.642;2022-09-21T05:44:13;10.27;;;7.90;;
7247;SDS011;3665;51.034;13.642;2022-09-21T05:49:04;9.67;;;8.60;;
7247;SDS011;3665;51.034;13.642;2022-09-21T05:54:06;10.90;;;7.97;;
7247;SDS011;3665;51.034;13.642;2022-09-21T05:58:58;11.43;;;8.50;;
7247;SDS011;3665;51.034;13.642;2022-09-21T06:03:58;10.77;;;7.70;;
7247;SDS011;3665;51.034;13.642;2022-09-21T06:08:46;8.70;;;7.37;;
7247;SDS011;3665;51.034;13.642;2022-09-21T06:13:39;13.87;;;8.00;;
7247;SDS011;3665;51.034;13.642;2022-09-21T06:18:40;8.70;;;7.23;;
7247;SDS011;3665;51.034;13.642;2022-09-21T06:23:26;8.47;;;7.40;;
7247;SDS011;3665;51.034;13.642;2022-09-21T06:28:13;9.83;;;8.23;;
7247;SDS011;3665;51.034;13.642;2022-09-21T06:33:04;9.63;;;7.40;;
7247;SDS011;3665;51.034;13.642;2022-09-21T06:38:59;8.80;;;7.50;;
7247;SDS011;3665;51.034;13.642;2022-09-21T06:44:30;9.30;;;7.23;;
7247;SDS011;3665;51.034;13.642;2022-09-21T06:49:17;8.97;;;6.87;;
7247;SDS011;3665;51.034;13.642;2022-09-21T06:54:05;9.50;;;6.83;;
7247;SDS011;3665;51.034;13.642;2022-09-21T06:58:56;7.50;;;6.70;;
7247;SDS011;3665;51.034;13.642;2022-09-21T07:03:42;7.73;;;6.80;;
7247;SDS011;3665;51.034;13.642;2022-09-21T07:08:33;8.23;;;7.40;;
7247;SDS011;3665;51.034;13.642;2022-09-21T07:13:55;7.90;;;6.30;;
7247;SDS011;3665;51.034;13.642;2022-09-21T07:19:26;6.77;;;6.13;;
7247;SDS011;3665;51.034;13.642;2022-09-21T07:24:13;7.07;;;6.37;;
7247;SDS011;3665;51.034;13.642;2022-09-21T07:29:06;7.67;;;6.10;;
7247;SDS011;3665;51.034;13.642;2022-09-21T07:33:54;8.20;;;6.00;;
7247;SDS011;3665;51.034;13.642;2022-09-21T07:38:47;9.23;;;5.90;;
7247;SDS011;3665;51.034;13.642;2022-09-21T07:44:23;8.10;;;5.87;;
7247;SDS011;3665;51.034;13.642;2022-09-21T07:49:19;9.83;;;6.33;;
7247;SDS011;3665;51.034;13.642;2022-09-21T07:54:07;7.03;;;5.70;;
7247;SDS011;3665;51.034;13.642;2022-09-21T08:00:07;8.07;;;4.90;;
7247;SDS011;3665;51.034;13.642;2022-09-21T08:05:40;7.83;;;5.30;;
7247;SDS011;3665;51.034;13.642;2022-09-21T08:11:27;6.17;;;5.03;;
7247;SDS011;3665;51.034;13.642;2022-09-21T08:16:32;6.07;;;5.10;;
7247;SDS011;3665;51.034;13.642;2022-09-21T08:21:27;5.07;;;4.17;;
7247;SDS011;3665;51.034;13.642;2022-09-21T08:26:22;7.07;;;4.60;;
7247;SDS011;3665;51.034;13.642;2022-09-21T08:36:40;4.27;;;3.87;;
7247;SDS011;3665;51.034;13.642;2022-09-21T08:41:39;5.80;;;3.47;;
7247;SDS011;3665;51.034;13.642;2022-09-21T08:46:40;5.87;;;4.23;;
7247;SDS011;3665;51.034;13.642;2022-09-21T08:51:44;4.73;;;3.33;;
7247;SDS011;3665;51.034;13.642;2022-09-21T08:57:59;3.97;;;3.57;;
7247;SDS011;3665;51.034;13.642;2022-09-21T09:08:35;3.97;;;3.00;;
7247;SDS011;3665;51.034;13.642;2022-09-21T09:14:19;4.10;;;2.60;;
7247;SDS011;3665;51.034;13.642;2022-09-21T09:25:02;3.77;;;2.20;;
7247;SDS011;3665;51.034;13.642;2022-09-21T09:29:59;4.13;;;2.60;;
7247;SDS011;3665;51.034;13.642;2022-09-21T09:35:43;2.73;;;2.23;;
7247;SDS011;3665;51.034;13.642;2022-09-21T09:41:04;3.30;;;2.10;;
7247;SDS011;3665;51.034;13.642;2022-09-21T09:46:09;3.10;;;1.63;;
7247;SDS011;3665;51.034;13.642;2022-09-21T09:51:27;6.50;;;1.80;;
7247;SDS011;3665;51.034;13.642;2022-09-21T09:56:45;3.27;;;2.00;;
7247;SDS011;3665;51.034;13.642;2022-09-21T10:01:35;3.77;;;1.93;;
7247;SDS011;3665;51.034;13.642;2022-09-21T10:06:31;1.83;;;1.70;;
7247;SDS011;3665;51.034;13.642;2022-09-21T10:12:02;2.63;;;2.10;;
7247;SDS011;3665;51.034;13.642;2022-09-21T10:17:19;2.57;;;2.17;;
7247;SDS011;3665;51.034;13.642;2022-09-21T10:22:38;4.37;;;2.60;;
7247;SDS011;3665;51.034;13.642;2022-09-21T10:27:26;2.03;;;1.83;;
7247;SDS011;3665;51.034;13.642;2022-09-21T10:32:17;2.53;;;1.80;;
7247;SDS011;3665;51.034;13.642;2022-09-21T10:37:33;1.77;;;1.07;;
7247;SDS011;3665;51.034;13.642;2022-09-21T10:42:21;3.93;;;1.60;;
7247;SDS011;3665;51.034;13.642;2022-09-21T10:47:30;3.83;;;1.80;;
7247;SDS011;3665;51.034;13.642;2022-09-21T10:58:08;3.00;;;1.50;;
7247;SDS011;3665;51.034;13.642;2022-09-21T11:02:57;3.40;;;1.63;;
7247;SDS011;3665;51.034;13.642;2022-09-21T11:07:48;1.90;;;1.70;;
7247;SDS011;3665;51.034;13.642;2022-09-21T11:13:34;2.53;;;1.30;;
7247;SDS011;3665;51.034;13.642;2022-09-21T11:18:24;1.37;;;1.23;;
7247;SDS011;3665;51.034;13.642;2022-09-21T11:23:32;1.83;;;1.10;;
7247;SDS011;3665;51.034;13.642;2022-09-21T11:33:56;1.50;;;1.40;;
7247;SDS011;3665;51.034;13.642;2022-09-21T11:40:18;2.57;;;1.53;;
7247;SDS011;3665;51.034;13.642;2022-09-21T11:46:06;1.60;;;1.27;;
7247;SDS011;3665;51.034;13.642;2022-09-21T11:51:12;1.33;;;1.10;;
7247;SDS011;3665;51.034;13.642;2022-09-21T11:56:33;1.30;;;1.00;;
7247;SDS011;3665;51.034;13.642;2022-09-21T12:01:37;1.07;;;1.00;;
7247;SDS011;3665;51.034;13.642;2022-09-21T12:06:42;1.30;;;1.00;;
7247;SDS011;3665;51.034;13.642;2022-09-21T12:11:45;1.80;;;1.00;;
7247;SDS011;3665;51.034;13.642;2022-09-21T12:22:25;1.30;;;1.20;;
7247;SDS011;3665;51.034;13.642;2022-09-21T12:27:13;3.13;;;1.43;;
7247;SDS011;3665;51.034;13.642;2022-09-21T12:32:17;2.60;;;1.30;;
7247;SDS011;3665;51.034;13.642;2022-09-21T12:37:20;2.33;;;1.20;;
7247;SDS011;3665;51.034;13.642;2022-09-21T12:42:27;1.37;;;1.10;;
7247;SDS011;3665;51.034;13.642;2022-09-21T12:47:47;0.70;;;0.70;;
7247;SDS011;3665;51.034;13.642;2022-09-21T12:52:47;1.17;;;0.90;;
7247;SDS011;3665;51.034;13.642;2022-09-21T12:57:39;1.20;;;1.10;;
7247;SDS011;3665;51.034;13.642;2022-09-21T13:03:14;1.57;;;1.10;;
7247;SDS011;3665;51.034;13.642;2022-09-21T13:08:17;1.67;;;1.10;;
7247;SDS011;3665;51.034;13.642;2022-09-21T13:13:22;2.63;;;1.50;;
7247;SDS011;3665;51.034;13.642;2022-09-21T13:24:06;3.30;;;1.80;;
7247;SDS011;3665;51.034;13.642;2022-09-21T13:41:36;3.23;;;1.73;;
7247;SDS011;3665;51.034;13.642;2022-09-21T13:46:56;2.50;;;1.40;;
7247;SDS011;3665;51.034;13.642;2022-09-21T13:51:49;1.43;;;1.33;;
7247;SDS011;3665;51.034;13.642;2022-09-21T13:56:49;3.33;;;1.20;;
7247;SDS011;3665;51.034;13.642;2022-09-21T14:01:53;3.40;;;1.53;;
7247;SDS011;3665;51.034;13.642;2022-09-21T14:07:12;1.87;;;1.10;;
7247;SDS011;3665;51.034;13.642;2022-09-21T14:12:51;1.20;;;1.00;;
7247;SDS011;3665;51.034;13.642;2022-09-21T14:17:38;1.30;;;0.90;;
7247;SDS011;3665;51.034;13.642;2022-09-21T14:22:41;1.23;;;1.00;;
7247;SDS011;3665;51.034;13.642;2022-09-21T14:27:29;1.00;;;0.87;;
7247;SDS011;3665;51.034;13.642;2022-09-21T14:32:17;2.07;;;1.20;;
7247;SDS011;3665;51.034;13.642;2022-09-21T14:37:14;2.17;;;0.97;;
7247;SDS011;3665;51.034;13.642;2022-09-21T14:42:10;2.40;;;1.00;;
7247;SDS011;3665;51.034;13.642;2022-09-21T14:47:18;1.20;;;0.90;;
7247;SDS011;3665;51.034;13.642;2022-09-21T14:52:18;0.70;;;0.70;;
7247;SDS011;3665;51.034;13.642;2022-09-21T14:57:20;2.37;;;0.80;;
7247;SDS011;3665;51.034;13.642;2022-09-21T15:02:25;1.20;;;1.00;;
7247;SDS011;3665;51.034;13.642;2022-09-21T15:07:20;2.17;;;1.10;;
7247;SDS011;3665;51.034;13.642;2022-09-21T15:12:39;0.80;;;0.80;;
7247;SDS011;3665;51.034;13.642;2022-09-21T15:17:51;2.07;;;1.17;;
7247;SDS011;3665;51.034;13.642;2022-09-21T15:22:44;2.00;;;0.90;;
7247;SDS011;3665;51.034;13.642;2022-09-21T15:27:34;2.20;;;1.20;;
7247;SDS011;3665;51.034;13.642;2022-09-21T15:32:28;1.53;;;1.10;;
7247;SDS011;3665;51.034;13.642;2022-09-21T15:37:26;1.53;;;1.10;;
7247;SDS011;3665;51.034;13.642;2022-09-21T15:42:13;2.27;;;1.43;;
7247;SDS011;3665;51.034;13.642;2022-09-21T15:47:25;8.10;;;1.83;;
7247;SDS011;3665;51.034;13.642;2022-09-21T15:52:39;2.77;;;1.40;;
7247;SDS011;3665;51.034;13.642;2022-09-21T15:57:34;4.50;;;1.97;;
7247;SDS011;3665;51.034;13.642;2022-09-21T16:02:33;5.93;;;2.40;;
7247;SDS011;3665;51.034;13.642;2022-09-21T16:13:16;3.43;;;1.93;;
7247;SDS011;3665;51.034;13.642;2022-09-21T16:19:01;1.40;;;1.30;;
7247;SDS011;3665;51.034;13.642;2022-09-21T16:24:06;2.20;;;1.30;;
7247;SDS011;3665;51.034;13.642;2022-09-21T16:29:36;1.67;;;1.10;;
7247;SDS011;3665;51.034;13.642;2022-09-21T16:35:22;2.90;;;1.20;;
7247;SDS011;3665;51.034;13.642;2022-09-21T16:40:23;3.27;;;1.93;;
7247;SDS011;3665;51.034;13.642;2022-09-21T16:51:16;2.27;;;1.57;;
7247;SDS011;3665;51.034;13.642;2022-09-21T16:56:08;1.50;;;1.30;;
7247;SDS011;3665;51.034;13.642;2022-09-21T17:01:10;1.93;;;1.63;;
7247;SDS011;3665;51.034;13.642;2022-09-21T17:11:38;3.47;;;1.57;;
7247;SDS011;3665;51.034;13.642;2022-09-21T17:28:29;4.90;;;4.40;;
7247;SDS011;3665;51.034;13.642;2022-09-21T17:33:58;4.67;;;2.67;;
7247;SDS011;3665;51.034;13.642;2022-09-21T17:39:48;4.90;;;2.43;;
7247;SDS011;3665;51.034;13.642;2022-09-21T17:45:29;3.90;;;2.40;;
7247;SDS011;3665;51.034;13.642;2022-09-21T17:50:30;2.77;;;2.57;;
7247;SDS011;3665;51.034;13.642;2022-09-21T17:55:34;4.33;;;2.40;;
7247;SDS011;3665;51.034;13.642;2022-09-21T18:00:29;4.17;;;2.50;;
7247;SDS011;3665;51.034;13.642;2022-09-21T20:20:41;6.13;;;2.60;;
7247;SDS011;3665;51.034;13.642;2022-09-21T20:26:16;2.43;;;2.23;;
7247;SDS011;3665;51.034;13.642;2022-09-21T20:32:55;4.33;;;2.70;;
7247;SDS011;3665;51.034;13.642;2022-09-21T20:43:34;4.40;;;2.63;;
7247;SDS011;3665;51.034;13.642;2022-09-21T20:48:29;3.83;;;3.30;;
7247;SDS011;3665;51.034;13.642;2022-09-21T21:24:19;5.50;;;4.13;;
7247;SDS011;3665;51.034;13.642;2022-09-21T21:29:31;4.77;;;4.30;;
7247;SDS011;3665;51.034;13.642;2022-09-21T21:35:37;7.37;;;4.30;;
7247;SDS011;3665;51.034;13.642;2022-09-21T21:41:36;3.57;;;3.27;;
7247;SDS011;3665;51.034;13.642;2022-09-21T21:46:36;5.97;;;3.73;;
